Time;durP1;ratioP1;P1;durP2;ratioP2;P2;SDS_P1;SDS_P2;PMS_P1;PMS_P2;Temp;Humidity;BMP_temperature;BMP_pressure;BME280_temperature;BME280_humidity;BME280_pressure;Samples;Min_cycle;Max_cycle;Signal;HPM_P1;HPM_P2
2024/01/08 00:00:18;;;;;;;25.70;16.30;;;;;;;-6.92;100.00;99292.70;109415;1253;59071;-73
2024/01/08 00:03:05;;;;;;;27.40;17.80;;;;;;;-6.94;100.00;99290.45;109372;1253;67590;-73
2024/01/08 00:05:36;;;;;;;25.70;17.80;;;;;;;-6.94;100.00;99292.17;108671;1256;1003144;-72
2024/01/08 00:08:03;;;;;;;25.70;17.70;;;;;;;-6.96;100.00;99293.02;109439;1252;65469;-72
2024/01/08 00:10:30;;;;;;;25.80;17.10;;;;;;;-6.98;100.00;99298.70;109152;1252;59065;-73
2024/01/08 00:12:56;;;;;;;24.40;16.90;;;;;;;-6.99;100.00;99302.84;109429;1253;61257;-71
2024/01/08 00:15:23;;;;;;;23.40;16.20;;;;;;;-7.00;100.00;99306.80;109420;1253;75370;-72
2024/01/08 00:17:50;;;;;;;22.00;15.60;;;;;;;-7.04;100.00;99312.29;109421;1252;68628;-72
2024/01/08 00:20:17;;;;;;;24.00;15.20;;;;;;;-7.07;100.00;99307.44;108667;1256;1002469;-72
2024/01/08 00:22:43;;;;;;;25.20;17.20;;;;;;;-7.09;100.00;99311.04;109208;1252;58955;-72
2024/01/08 00:25:10;;;;;;;27.40;16.70;;;;;;;-7.09;100.00;99314.67;109461;1255;61370;-73
2024/01/08 00:27:36;;;;;;;21.90;15.70;;;;;;;-7.09;100.00;99314.15;109323;1252;73707;-73
2024/01/08 00:30:04;;;;;;;21.00;14.20;;;;;;;-7.14;100.00;99316.02;109421;1252;61332;-73
2024/01/08 00:32:31;;;;;;;22.50;14.60;;;;;;;-7.18;100.00;99315.28;108552;1254;1002199;-72
2024/01/08 00:34:58;;;;;;;19.70;14.40;;;;;;;-7.21;100.00;99315.24;109431;1252;59831;-72
2024/01/08 00:37:24;;;;;;;19.10;13.40;;;;;;;-7.26;100.00;99318.30;109419;1254;61503;-72
2024/01/08 00:39:51;;;;;;;21.80;15.20;;;;;;;-7.27;100.00;99321.91;109298;1258;76165;-73
2024/01/08 00:42:17;;;;;;;20.60;13.30;;;;;;;-7.26;100.00;99322.10;108650;1252;1002620;-72
2024/01/08 00:44:44;;;;;;;23.30;13.90;;;;;;;-7.26;100.00;99324.17;109397;1252;73920;-72
2024/01/08 00:47:11;;;;;;;20.80;13.70;;;;;;;-7.28;100.00;99327.09;109431;1253;59546;-72
2024/01/08 00:49:37;;;;;;;21.60;13.10;;;;;;;-7.29;100.00;99326.22;109416;1253;60306;-73
2024/01/08 00:52:04;;;;;;;22.80;13.60;;;;;;;-7.31;100.00;99329.83;109393;1253;74557;-73
2024/01/08 00:54:31;;;;;;;20.00;13.20;;;;;;;-7.30;100.00;99329.15;109284;1252;68780;-73
2024/01/08 00:56:57;;;;;;;20.80;13.80;;;;;;;-7.28;100.00;99332.61;109457;1253;74052;-73
2024/01/08 00:59:24;;;;;;;18.80;12.60;;;;;;;-7.28;100.00;99332.45;109402;1256;59729;-73
2024/01/08 01:01:51;;;;;;;20.10;12.60;;;;;;;-7.28;100.00;99335.20;109431;1252;61279;-73
2024/01/08 01:04:18;;;;;;;18.30;12.90;;;;;;;-7.28;100.00;99338.66;109442;1252;67800;-73
2024/01/08 01:06:44;;;;;;;23.10;13.80;;;;;;;-7.29;100.00;99344.00;109434;1253;70064;-73
2024/01/08 01:09:11;;;;;;;19.70;12.60;;;;;;;-7.32;100.00;99343.11;109360;1253;73779;-72
2024/01/08 01:11:37;;;;;;;22.40;14.10;;;;;;;-7.32;100.00;99345.69;109408;1253;59092;-73
2024/01/08 01:14:04;;;;;;;18.60;12.90;;;;;;;-7.33;100.00;99352.23;109429;1256;60279;-72
2024/01/08 01:16:32;;;;;;;17.80;13.30;;;;;;;-7.34;100.00;99361.55;108687;1252;1002272;-72
2024/01/08 01:18:59;;;;;;;16.90;12.90;;;;;;;-7.35;100.00;99359.45;109373;1253;60053;-72
2024/01/08 01:21:28;;;;;;;21.70;13.10;;;;;;;-7.36;100.00;99362.23;108646;1253;1002228;-72
2024/01/08 01:23:54;;;;;;;22.40;13.20;;;;;;;-7.38;100.00;99363.92;109409;1253;59579;-73
2024/01/08 01:26:21;;;;;;;19.80;12.80;;;;;;;-7.40;100.00;99365.79;109371;1252;61310;-73
2024/01/08 01:28:48;;;;;;;20.90;13.10;;;;;;;-7.40;100.00;99369.41;109407;1254;75116;-72
2024/01/08 01:31:15;;;;;;;22.30;13.10;;;;;;;-7.40;100.00;99367.69;109453;1252;60138;-72
2024/01/08 01:33:42;;;;;;;22.00;13.60;;;;;;;-7.41;100.00;99364.06;109496;1253;64139;-72
2024/01/08 01:36:08;;;;;;;20.90;13.40;;;;;;;-7.42;100.00;99365.27;109429;1252;59031;-73
2024/01/08 01:38:35;;;;;;;16.80;12.70;;;;;;;-7.43;100.00;99365.93;108654;1253;1002722;-72
2024/01/08 01:41:01;;;;;;;20.00;12.60;;;;;;;-7.44;100.00;99368.00;109394;1253;74639;-72
2024/01/08 01:43:28;;;;;;;19.40;12.00;;;;;;;-7.43;100.00;99372.84;109418;1253;67480;-73
2024/01/08 01:46:00;;;;;;;18.20;12.70;;;;;;;-7.44;100.00;99370.07;109425;1254;73916;-71
2024/01/08 01:48:28;;;;;;;23.70;13.40;;;;;;;-7.45;100.00;99373.52;108683;1252;1002290;-72
2024/01/08 01:50:55;;;;;;;19.70;11.90;;;;;;;-7.46;100.00;99372.64;109414;1253;60248;-72
2024/01/08 01:53:23;;;;;;;21.40;12.50;;;;;;;-7.48;100.00;99372.09;108701;1252;1002475;-72
2024/01/08 01:55:50;;;;;;;22.30;13.00;;;;;;;-7.51;100.00;99380.35;109475;1254;70425;-73
2024/01/08 01:58:17;;;;;;;17.90;13.70;;;;;;;-7.52;100.00;99380.67;109414;1253;73057;-72
2024/01/08 02:00:44;;;;;;;18.60;13.20;;;;;;;-7.53;100.00;99378.44;109381;1253;60801;-72
2024/01/08 02:03:11;;;;;;;19.00;12.90;;;;;;;-7.52;100.00;99382.58;109425;1252;61529;-72
2024/01/08 02:05:38;;;;;;;23.00;14.10;;;;;;;-7.52;100.00;99382.75;109411;1252;75687;-71
2024/01/08 02:08:06;;;;;;;19.60;13.40;;;;;;;-7.51;100.00;99382.41;108665;1253;1003033;-72
2024/01/08 02:10:33;;;;;;;20.00;13.20;;;;;;;-7.51;100.00;99385.34;108653;1253;1002254;-72
2024/01/08 02:13:00;;;;;;;22.60;13.80;;;;;;;-7.52;100.00;99388.79;107892;1252;1002903;-73
2024/01/08 02:15:26;;;;;;;18.80;13.60;;;;;;;-7.53;100.00;99393.61;109409;1253;61685;-73
2024/01/08 02:17:54;;;;;;;23.30;14.10;;;;;;;-7.52;100.00;99397.77;109281;1254;75593;-72
2024/01/08 02:20:20;;;;;;;20.50;12.20;;;;;;;-7.52;100.00;99396.55;108661;1254;1002161;-72
2024/01/08 02:22:47;;;;;;;24.60;13.90;;;;;;;-7.53;100.00;99397.40;108649;1253;1002066;-73
2024/01/08 02:25:14;;;;;;;23.40;13.10;;;;;;;-7.52;100.00;99400.70;109418;1252;61074;-72
2024/01/08 02:27:41;;;;;;;19.80;13.80;;;;;;;-7.51;100.00;99405.87;108679;1252;1002710;-73
2024/01/08 02:30:08;;;;;;;22.10;12.50;;;;;;;-7.51;100.00;99405.54;109427;1253;75126;-73
2024/01/08 02:32:35;;;;;;;27.20;12.90;;;;;;;-7.53;100.00;99407.23;109396;1253;69762;-72
2024/01/08 02:35:01;;;;;;;17.20;11.10;;;;;;;-7.53;100.00;99407.57;109406;1254;73649;-71
2024/01/08 02:37:28;;;;;;;17.30;12.80;;;;;;;-7.53;100.00;99403.61;109399;1254;60569;-72
2024/01/08 02:39:54;;;;;;;19.00;12.40;;;;;;;-7.55;100.00;99402.05;108617;1253;1003022;-72
2024/01/08 02:42:21;;;;;;;22.40;12.40;;;;;;;-7.57;100.00;99404.94;109437;1252;75582;-72
2024/01/08 02:44:48;;;;;;;21.40;11.80;;;;;;;-7.61;100.00;99405.25;109414;1252;68959;-72
2024/01/08 02:47:14;;;;;;;19.80;12.20;;;;;;;-7.65;100.00;99406.23;109423;1252;73674;-72
2024/01/08 02:49:41;;;;;;;20.10;12.20;;;;;;;-7.70;100.00;99413.94;109382;1253;59525;-72
2024/01/08 02:52:07;;;;;;;18.80;10.90;;;;;;;-7.74;100.00;99412.15;109457;1252;61483;-72
2024/01/08 02:54:34;;;;;;;22.00;13.10;;;;;;;-7.78;100.00;99417.80;108681;1254;1002286;-71
2024/01/08 02:57:00;;;;;;;18.80;11.20;;;;;;;-7.83;100.00;99422.55;108708;1252;1002204;-73
2024/01/08 02:59:27;;;;;;;20.80;12.30;;;;;;;-7.86;100.00;99421.13;109405;1254;64098;-72
2024/01/08 03:01:53;;;;;;;21.00;12.80;;;;;;;-7.90;100.00;99420.91;109421;1252;59912;-72
2024/01/08 03:04:20;;;;;;;17.70;11.90;;;;;;;-7.95;100.00;99423.07;109430;1254;60537;-71
2024/01/08 03:06:47;;;;;;;24.90;12.60;;;;;;;-8.00;100.00;99429.73;109398;1253;74886;-71
2024/01/08 03:09:13;;;;;;;22.50;12.90;;;;;;;-8.03;100.00;99426.25;108667;1252;1002532;-72
2024/01/08 03:11:40;;;;;;;22.60;13.40;;;;;;;-8.04;100.00;99428.81;109451;1252;59063;-72
2024/01/08 03:14:06;;;;;;;21.60;12.80;;;;;;;-8.05;100.00;99431.20;109401;1252;58946;-72
2024/01/08 03:16:33;;;;;;;18.90;11.40;;;;;;;-8.05;100.00;99438.96;109444;1252;59069;-73
2024/01/08 03:18:59;;;;;;;24.90;14.00;;;;;;;-8.05;100.00;99449.66;109457;1252;59106;-72
2024/01/08 03:21:26;;;;;;;22.10;14.30;;;;;;;-8.06;100.00;99450.67;107903;1252;1002533;-73
2024/01/08 03:23:53;;;;;;;27.60;14.80;;;;;;;-8.06;100.00;99449.45;109374;1253;73736;-72
2024/01/08 03:26:20;;;;;;;26.60;14.50;;;;;;;-8.06;100.00;99455.48;109420;1252;59314;-72
2024/01/08 03:28:46;;;;;;;20.10;13.10;;;;;;;-8.06;100.00;99455.67;108686;1252;1002103;-72
2024/01/08 03:31:13;;;;;;;22.40;13.90;;;;;;;-8.06;100.00;99458.42;109449;1252;74736;-72
2024/01/08 03:33:39;;;;;;;21.70;13.50;;;;;;;-8.06;100.00;99461.88;109442;1252;68059;-72
2024/01/08 03:36:09;;;;;;;22.90;12.70;;;;;;;-8.07;100.00;99468.59;109448;1252;72653;-72
2024/01/08 03:38:36;;;;;;;23.80;12.90;;;;;;;-8.09;100.00;99468.90;109415;1252;60706;-72
2024/01/08 03:41:03;;;;;;;20.80;12.80;;;;;;;-8.09;100.00;99470.79;109467;1252;60361;-73
2024/01/08 03:43:30;;;;;;;22.20;12.80;;;;;;;-8.11;100.00;99472.49;109416;1252;73584;-73
2024/01/08 03:45:57;;;;;;;21.10;13.50;;;;;;;-8.12;100.00;99475.06;109451;1252;69743;-73
2024/01/08 03:48:23;;;;;;;22.70;13.90;;;;;;;-8.13;100.00;99478.67;109451;1252;73008;-72
2024/01/08 03:50:50;;;;;;;23.30;13.30;;;;;;;-8.12;100.00;99476.96;108560;1252;1002209;-73
2024/01/08 03:53:17;;;;;;;22.90;12.70;;;;;;;-8.13;100.00;99480.40;108713;1252;1002591;-72
2024/01/08 03:55:43;;;;;;;18.90;12.30;;;;;;;-8.14;100.00;99479.17;109431;1252;59094;-72
2024/01/08 03:58:10;;;;;;;20.40;11.70;;;;;;;-8.15;100.00;99478.64;109467;1252;59005;-72
2024/01/08 04:00:36;;;;;;;25.20;12.80;;;;;;;-8.16;100.00;99485.52;109410;1252;59094;-72
2024/01/08 04:03:03;;;;;;;19.10;12.40;;;;;;;-8.17;100.00;99485.50;109400;1252;59658;-71
2024/01/08 04:05:30;;;;;;;30.30;14.00;;;;;;;-8.17;100.00;99488.42;109449;1252;61503;-73
2024/01/08 04:07:56;;;;;;;22.70;13.60;;;;;;;-8.15;100.00;99487.42;109463;1252;75370;-73
2024/01/08 04:10:23;;;;;;;23.10;14.70;;;;;;;-8.16;100.00;99484.48;109427;1252;69996;-72
2024/01/08 04:12:49;;;;;;;23.10;13.90;;;;;;;-8.14;100.00;99491.56;108663;1252;1002321;-72
2024/01/08 04:15:16;;;;;;;21.90;13.20;;;;;;;-8.14;100.00;99492.80;109263;1253;59322;-72
2024/01/08 04:17:43;;;;;;;28.70;14.20;;;;;;;-8.14;100.00;99496.23;108671;1252;1002347;-72
2024/01/08 04:20:10;;;;;;;25.60;14.90;;;;;;;-8.17;100.00;99504.81;109445;1252;75753;-73
2024/01/08 04:22:36;;;;;;;23.50;13.90;;;;;;;-8.16;100.00;99507.41;109517;1252;69705;-72
2024/01/08 04:25:03;;;;;;;25.40;14.70;;;;;;;-8.15;100.00;99510.70;109386;1252;65051;-73
2024/01/08 04:27:30;;;;;;;26.90;14.50;;;;;;;-8.14;100.00;99511.21;108666;1252;1002696;-72
2024/01/08 04:29:57;;;;;;;26.90;15.60;;;;;;;-8.15;100.00;99517.25;109462;1251;61299;-72
2024/01/08 04:32:23;;;;;;;22.40;14.50;;;;;;;-8.17;100.00;99521.02;108779;1251;1002833;-71
2024/01/08 04:34:51;;;;;;;23.50;14.70;;;;;;;-8.17;100.00;99520.32;109539;1251;69585;-72
2024/01/08 04:37:18;;;;;;;27.90;15.90;;;;;;;-8.18;100.00;99525.82;109498;1251;72706;-72
2024/01/08 04:39:45;;;;;;;26.20;15.50;;;;;;;-8.18;100.00;99528.58;109522;1251;60867;-72
2024/01/08 04:42:12;;;;;;;24.50;13.50;;;;;;;-8.19;100.00;99533.73;109526;1251;60324;-72
2024/01/08 04:44:38;;;;;;;27.50;15.10;;;;;;;-8.21;100.00;99541.80;108758;1251;1002259;-72
2024/01/08 04:47:07;;;;;;;24.20;15.30;;;;;;;-8.23;100.00;99543.14;108735;1251;1003130;-73
2024/01/08 04:49:33;;;;;;;25.20;14.40;;;;;;;-8.24;100.00;99549.66;109530;1251;72630;-73
2024/01/08 04:52:00;;;;;;;26.60;15.90;;;;;;;-8.24;100.00;99546.93;108677;1251;1002649;-72
2024/01/08 04:54:26;;;;;;;22.20;13.20;;;;;;;-8.25;100.00;99544.48;108738;1251;1003017;-72
2024/01/08 04:56:55;;;;;;;21.40;13.70;;;;;;;-8.25;100.00;99548.44;109505;1251;74702;-72
2024/01/08 04:59:23;;;;;;;27.10;14.80;;;;;;;-8.28;100.00;99548.40;109546;1251;68698;-72
2024/01/08 05:01:50;;;;;;;25.80;14.60;;;;;;;-8.29;100.00;99551.31;109488;1251;73421;-72
2024/01/08 05:04:17;;;;;;;25.60;15.00;;;;;;;-8.30;100.00;99556.45;109500;1251;59561;-71
2024/01/08 05:06:44;;;;;;;27.70;15.20;;;;;;;-8.30;100.00;99558.02;109539;1251;61528;-72
2024/01/08 05:09:11;;;;;;;25.30;14.90;;;;;;;-8.31;100.00;99560.41;109530;1251;75776;-71
2024/01/08 05:11:37;;;;;;;24.70;15.40;;;;;;;-8.32;100.00;99563.15;109508;1251;69248;-73
2024/01/08 05:14:04;;;;;;;22.50;14.40;;;;;;;-8.35;100.00;99567.23;108768;1251;1002294;-71
2024/01/08 05:16:31;;;;;;;22.10;12.20;;;;;;;-8.40;100.00;99572.86;109504;1251;59322;-72
2024/01/08 05:18:57;;;;;;;26.40;14.70;;;;;;;-8.45;100.00;99579.65;109573;1251;58880;-73
2024/01/08 05:21:24;;;;;;;21.50;13.70;;;;;;;-8.50;100.00;99584.05;108738;1251;1003007;-72
2024/01/08 05:23:51;;;;;;;22.80;13.30;;;;;;;-8.55;100.00;99584.30;108753;1251;1002804;-72
2024/01/08 05:26:17;;;;;;;27.10;14.30;;;;;;;-8.58;100.00;99590.25;108727;1251;1002695;-72
2024/01/08 05:28:44;;;;;;;23.30;13.80;;;;;;;-8.62;100.00;99589.33;109537;1251;59103;-71
2024/01/08 05:31:10;;;;;;;22.60;14.20;;;;;;;-8.65;100.00;99597.88;109532;1251;58984;-73
2024/01/08 05:33:37;;;;;;;20.20;13.00;;;;;;;-8.65;100.00;99601.14;109588;1251;59494;-75
2024/01/08 05:36:04;;;;;;;22.40;14.50;;;;;;;-8.66;100.00;99601.84;109538;1251;59218;-72
2024/01/08 05:38:31;;;;;;;18.80;12.40;;;;;;;-8.66;100.00;99603.54;109527;1251;72361;-71
2024/01/08 05:40:57;;;;;;;24.20;13.00;;;;;;;-8.68;100.00;99610.92;109525;1251;60696;-72
2024/01/08 05:43:24;;;;;;;24.80;14.70;;;;;;;-8.71;100.00;99612.92;108715;1251;1002923;-72
2024/01/08 05:45:51;;;;;;;23.70;13.30;;;;;;;-8.74;100.00;99623.20;109523;1251;74578;-72
2024/01/08 05:48:18;;;;;;;29.30;15.80;;;;;;;-8.76;100.00;99624.52;109517;1251;68659;-72
2024/01/08 05:50:44;;;;;;;27.40;15.60;;;;;;;-8.78;100.00;99627.07;109512;1251;73734;-72
2024/01/08 05:53:11;;;;;;;21.40;12.70;;;;;;;-8.79;100.00;99630.14;109468;1251;60565;-71
2024/01/08 05:55:37;;;;;;;27.10;15.30;;;;;;;-8.82;100.00;99630.60;108588;1251;1002904;-72
2024/01/08 05:58:04;;;;;;;22.50;14.50;;;;;;;-8.84;100.00;99631.59;109486;1251;75524;-72
2024/01/08 06:00:31;;;;;;;26.80;16.20;;;;;;;-8.87;100.00;99633.95;109511;1251;68724;-72
2024/01/08 06:02:57;;;;;;;23.00;13.50;;;;;;;-8.90;100.00;99634.23;109483;1251;72947;-72
2024/01/08 06:05:27;;;;;;;25.80;15.30;;;;;;;-8.94;100.00;99637.95;109477;1251;59371;-73
2024/01/08 06:07:54;;;;;;;25.50;14.90;;;;;;;-8.94;100.00;99644.13;108753;1251;1002482;-72
2024/01/08 06:10:21;;;;;;;27.30;16.30;;;;;;;-8.96;100.00;99647.86;109499;1251;74399;-72
2024/01/08 06:12:47;;;;;;;30.30;18.10;;;;;;;-8.98;100.00;99651.61;109519;1251;68994;-71
2024/01/08 06:15:14;;;;;;;25.80;16.30;;;;;;;-9.01;100.00;99647.93;108683;1251;1002481;-72
2024/01/08 06:17:40;;;;;;;24.40;14.30;;;;;;;-9.04;100.00;99651.65;108721;1251;1002571;-72
2024/01/08 06:20:09;;;;;;;29.50;15.90;;;;;;;-9.06;100.00;99652.83;109417;1251;61459;-72
2024/01/08 06:22:35;;;;;;;26.00;15.00;;;;;;;-9.09;100.00;99655.34;109468;1251;74637;-72
2024/01/08 06:25:03;;;;;;;25.10;14.90;;;;;;;-9.12;100.00;99658.89;108722;1251;1002261;-73
2024/01/08 06:27:30;;;;;;;30.60;16.20;;;;;;;-9.14;100.00;99663.83;108749;1251;1002543;-72
2024/01/08 06:29:56;;;;;;;27.70;15.00;;;;;;;-9.15;100.00;99671.89;109454;1251;60954;-72
2024/01/08 06:32:24;;;;;;;30.00;16.20;;;;;;;-9.16;100.00;99673.09;109564;1251;60323;-72
2024/01/08 06:34:51;;;;;;;27.50;14.20;;;;;;;-9.16;100.00;99678.76;109523;1251;74634;-72
2024/01/08 06:37:18;;;;;;;27.30;15.80;;;;;;;-9.14;100.00;99682.74;108743;1251;1002492;-72
2024/01/08 06:39:44;;;;;;;26.50;15.70;;;;;;;-9.13;100.00;99684.86;109492;1251;72907;-73
2024/01/08 06:42:11;;;;;;;26.00;15.00;;;;;;;-9.11;100.00;99689.39;109398;1251;60734;-72
2024/01/08 06:44:38;;;;;;;28.40;17.10;;;;;;;-9.12;100.00;99691.75;109518;1251;61541;-74
2024/01/08 06:47:04;;;;;;;29.50;16.00;;;;;;;-9.12;100.00;99691.23;109477;1251;75636;-73
2024/01/08 06:49:31;;;;;;;31.30;16.50;;;;;;;-9.12;100.00;99695.71;109352;1251;69966;-73
2024/01/08 06:51:59;;;;;;;26.20;15.40;;;;;;;-9.13;100.00;99700.02;108710;1251;1002335;-73
2024/01/08 06:54:26;;;;;;;24.80;14.90;;;;;;;-9.11;100.00;99703.15;109471;1251;59151;-72
2024/01/08 06:56:52;;;;;;;24.70;15.70;;;;;;;-9.10;100.00;99705.58;109502;1253;60307;-71
2024/01/08 06:59:19;;;;;;;25.60;14.00;;;;;;;-9.09;100.00;99708.35;108733;1251;1002953;-73
2024/01/08 07:01:48;;;;;;;26.00;16.30;;;;;;;-9.08;100.00;99708.88;109463;1251;68801;-73
2024/01/08 07:04:14;;;;;;;25.80;15.70;;;;;;;-9.05;100.00;99714.80;109098;1252;72245;-74
2024/01/08 07:06:41;;;;;;;25.10;14.00;;;;;;;-9.02;100.00;99719.52;108697;1251;1002520;-76
2024/01/08 07:09:08;;;;;;;26.00;15.40;;;;;;;-9.00;100.00;99723.51;109419;1252;60384;-76
2024/01/08 07:11:34;;;;;;;29.20;16.00;;;;;;;-8.99;100.00;99724.56;109377;1252;75797;-76
2024/01/08 07:14:01;;;;;;;27.10;15.40;;;;;;;-8.96;100.00;99729.31;109357;1252;68849;-77
2024/01/08 07:16:27;;;;;;;28.20;17.20;;;;;;;-8.91;100.00;99733.20;108565;1252;1002757;-76
2024/01/08 07:18:54;;;;;;;27.30;16.70;;;;;;;-8.88;100.00;99733.11;109372;1252;59582;-76
2024/01/08 07:21:22;;;;;;;25.80;16.40;;;;;;;-8.83;100.00;99738.20;109358;1252;60129;-76
2024/01/08 07:23:50;;;;;;;27.60;16.50;;;;;;;-8.78;100.00;99743.30;108675;1252;1003118;-76
2024/01/08 07:26:16;;;;;;;22.90;14.20;;;;;;;-8.73;100.00;99750.50;107899;1252;1003214;-75
2024/01/08 07:28:44;;;;;;;24.00;13.90;;;;;;;-8.69;100.00;99746.63;108641;1252;1002239;-75
2024/01/08 07:31:12;;;;;;;27.00;14.50;;;;;;;-8.65;100.00;99753.59;109336;1252;59071;-75
2024/01/08 07:33:41;;;;;;;30.40;16.80;;;;;;;-8.59;100.00;99755.96;109366;1252;59719;-75
2024/01/08 07:36:08;;;;;;;26.80;15.60;;;;;;;-8.52;100.00;99761.11;107930;1252;1002386;-75
2024/01/08 07:38:35;;;;;;;29.00;16.20;;;;;;;-8.47;100.00;99762.79;109430;1252;68498;-75
2024/01/08 07:41:02;;;;;;;28.70;17.80;;;;;;;-8.42;100.00;99769.27;109416;1252;72632;-75
2024/01/08 07:43:29;;;;;;;29.80;16.40;;;;;;;-8.35;100.00;99776.77;108568;1252;1002417;-75
2024/01/08 07:45:56;;;;;;;28.00;17.00;;;;;;;-8.29;100.00;99773.46;109461;1252;58988;-76
2024/01/08 07:48:22;;;;;;;30.60;17.50;;;;;;;-8.21;100.00;99768.44;108685;1252;1002800;-75
2024/01/08 07:50:49;;;;;;;31.50;17.90;;;;;;;-8.15;100.00;99771.17;108699;1252;1003057;-75
2024/01/08 07:53:16;;;;;;;26.30;17.30;;;;;;;-8.10;100.00;99775.74;108683;1252;1002293;-75
2024/01/08 07:55:43;;;;;;;27.70;16.10;;;;;;;-8.03;100.00;99778.82;108618;1252;1002431;-75
2024/01/08 07:58:13;;;;;;;27.40;15.80;;;;;;;-7.96;100.00;99785.52;108720;1252;1002697;-75
2024/01/08 08:00:41;;;;;;;29.10;17.40;;;;;;;-7.89;100.00;99791.18;109449;1252;75896;-75
2024/01/08 08:03:07;;;;;;;27.10;16.40;;;;;;;-7.80;100.00;99798.27;109443;1252;69892;-75
2024/01/08 08:05:34;;;;;;;29.00;15.70;;;;;;;-7.71;100.00;99804.46;109445;1252;72580;-75
2024/01/08 08:08:01;;;;;;;24.10;15.90;;;;;;;-7.71;100.00;99807.56;109415;1252;59267;-75
2024/01/08 08:10:27;;;;;;;25.60;14.90;;;;;;;-7.70;100.00;99812.06;109450;1252;60443;-74
2024/01/08 08:12:54;;;;;;;24.20;13.00;;;;;;;-7.70;100.00;99819.66;109285;1252;74679;-75
2024/01/08 08:15:21;;;;;;;21.20;13.60;;;;;;;-7.73;100.00;99823.24;107933;1252;1002473;-76
2024/01/08 08:17:49;;;;;;;21.30;13.50;;;;;;;-7.69;100.00;99823.47;108645;1252;1003063;-75
2024/01/08 08:20:16;;;;;;;23.40;14.60;;;;;;;-7.65;100.00;99824.58;109392;1252;59999;-75
2024/01/08 08:22:42;;;;;;;28.10;15.70;;;;;;;-7.58;100.00;99828.34;109461;1252;60516;-75
2024/01/08 08:25:09;;;;;;;26.00;16.20;;;;;;;-7.47;100.00;99834.77;108675;1252;1002998;-75
2024/01/08 08:27:35;;;;;;;25.70;15.60;;;;;;;-7.41;100.00;99838.33;108710;1252;1002394;-76
2024/01/08 08:30:02;;;;;;;29.80;16.70;;;;;;;-7.34;100.00;99840.20;109408;1252;59134;-76
2024/01/08 08:32:30;;;;;;;24.40;14.30;;;;;;;-7.23;100.00;99837.97;109403;1252;59388;-75
2024/01/08 08:34:57;;;;;;;26.70;15.30;;;;;;;-7.16;100.00;99843.80;109455;1252;61590;-75
2024/01/08 08:37:24;;;;;;;24.40;14.90;;;;;;;-7.11;100.00;99846.48;109466;1252;75838;-76
2024/01/08 08:39:50;;;;;;;26.60;15.50;;;;;;;-7.06;100.00;99851.74;109436;1252;69927;-76
2024/01/08 08:42:17;;;;;;;23.80;15.00;;;;;;;-7.03;100.00;99854.55;108571;1252;1002567;-74
2024/01/08 08:44:43;;;;;;;21.20;15.50;;;;;;;-6.98;100.00;99860.52;109368;1252;59429;-72
2024/01/08 08:47:10;;;;;;;24.70;14.80;;;;;;;-6.90;100.00;99871.54;109413;1252;61382;-72
2024/01/08 08:49:38;;;;;;;24.60;15.20;;;;;;;-6.84;100.00;99873.02;109324;1252;75585;-72
2024/01/08 08:52:04;;;;;;;22.80;15.20;;;;;;;-6.84;100.00;99873.89;109438;1252;70076;-72
2024/01/08 08:54:31;;;;;;;24.50;15.70;;;;;;;-6.83;100.00;99878.05;109363;1252;72431;-73
2024/01/08 08:56:58;;;;;;;23.30;14.10;;;;;;;-6.74;100.00;99878.36;109393;1252;59550;-72
2024/01/08 08:59:24;;;;;;;27.50;16.80;;;;;;;-6.66;100.00;99881.27;109168;1252;60939;-73
2024/01/08 09:01:51;;;;;;;22.90;14.60;;;;;;;-6.55;100.00;99875.39;109430;1252;75581;-72
2024/01/08 09:04:18;;;;;;;24.30;15.20;;;;;;;-6.47;100.00;99878.48;109420;1252;68636;-73
2024/01/08 09:06:45;;;;;;;26.80;15.00;;;;;;;-6.43;100.00;99879.91;109371;1252;72599;-71
2024/01/08 09:09:12;;;;;;;21.20;14.70;;;;;;;-6.43;100.00;99883.36;108685;1252;1002098;-72
2024/01/08 09:11:39;;;;;;;25.90;17.10;;;;;;;-6.41;100.00;99884.95;109441;1252;60289;-72
2024/01/08 09:14:08;;;;;;;19.20;14.20;;;;;;;-6.43;100.00;99885.45;109426;1252;75905;-72
2024/01/08 09:16:35;;;;;;;25.70;16.00;;;;;;;-6.47;100.00;99888.32;109404;1252;67462;-71
2024/01/08 09:19:03;;;;;;;25.60;15.50;;;;;;;-6.49;100.00;99892.42;109421;1252;73904;-72
2024/01/08 09:21:29;;;;;;;18.50;13.50;;;;;;;-6.43;100.00;99895.64;108657;1252;1002405;-71
2024/01/08 09:23:56;;;;;;;24.00;15.00;;;;;;;-6.41;100.00;99895.67;108564;1252;1003048;-72
2024/01/08 09:26:22;;;;;;;24.60;15.20;;;;;;;-6.41;100.00;99899.83;109430;1252;59103;-72
2024/01/08 09:28:49;;;;;;;19.80;13.30;;;;;;;-6.43;100.00;99895.98;109444;1252;59015;-71
2024/01/08 09:31:16;;;;;;;20.80;13.60;;;;;;;-6.41;100.00;99895.15;109467;1252;59102;-73
2024/01/08 09:33:43;;;;;;;23.50;14.80;;;;;;;-6.40;100.00;99896.20;108641;1252;1002511;-72
2024/01/08 09:36:10;;;;;;;24.70;15.90;;;;;;;-6.44;100.00;99899.95;107900;1252;1002657;-72
2024/01/08 09:38:36;;;;;;;23.40;14.70;;;;;;;-6.40;100.00;99901.23;109422;1252;59424;-71
2024/01/08 09:41:04;;;;;;;26.70;16.20;;;;;;;-6.37;100.00;99901.27;109466;1252;69661;-71
2024/01/08 09:43:35;;;;;;;23.20;15.00;;;;;;;-6.28;100.00;99901.40;109420;1252;73885;-72
2024/01/08 09:46:07;;;;;;;22.90;15.80;;;;;;;-6.21;100.00;99903.25;109337;1252;60836;-71
2024/01/08 09:48:35;;;;;;;24.60;16.40;;;;;;;-6.16;100.00;99899.35;109485;1252;59951;-73
2024/01/08 09:51:03;;;;;;;23.70;13.60;;;;;;;-6.12;100.00;99905.98;108674;1252;1002512;-73
2024/01/08 09:53:31;;;;;;;22.20;14.00;;;;;;;-6.13;100.00;99906.83;108704;1252;1015450;-73
2024/01/08 09:55:59;;;;;;;24.10;15.10;;;;;;;-6.00;100.00;99901.31;109444;1252;71382;-74
2024/01/08 09:58:26;;;;;;;22.00;13.90;;;;;;;-5.93;100.00;99901.40;109403;1252;60546;-72
2024/01/08 10:00:53;;;;;;;22.10;13.30;;;;;;;-5.90;100.00;99900.20;109488;1252;60983;-72
2024/01/08 10:03:21;;;;;;;21.90;13.50;;;;;;;-5.88;100.00;99902.82;108696;1252;1002577;-71
2024/01/08 10:05:49;;;;;;;22.70;14.00;;;;;;;-5.79;100.00;99899.14;109464;1252;67900;-72
2024/01/08 10:08:17;;;;;;;21.30;13.80;;;;;;;-5.66;100.00;99901.73;109350;1252;71937;-72
2024/01/08 10:10:44;;;;;;;20.10;13.20;;;;;;;-5.65;100.00;99906.77;109356;1252;59530;-72
2024/01/08 10:13:12;;;;;;;21.10;13.60;;;;;;;-5.74;100.00;99910.11;108727;1252;1003145;-72
2024/01/08 10:15:38;;;;;;;22.10;14.30;;;;;;;-5.81;100.00;99910.36;109375;1252;75609;-72
2024/01/08 10:18:08;;;;;;;17.40;11.90;;;;;;;-5.84;100.00;99907.91;109211;1252;69640;-72
2024/01/08 10:20:36;;;;;;;18.30;11.70;;;;;;;-5.79;100.00;99901.91;109398;1252;72643;-72
2024/01/08 10:23:05;;;;;;;19.30;13.70;;;;;;;-5.80;100.00;99898.09;109253;1252;59579;-72
2024/01/08 10:25:33;;;;;;;16.70;11.50;;;;;;;-5.85;100.00;99896.80;109447;1252;59382;-73
2024/01/08 10:28:00;;;;;;;20.80;14.20;;;;;;;-5.85;100.00;99897.68;109454;1252;75042;-72
2024/01/08 10:30:27;;;;;;;18.00;12.50;;;;;;;-5.74;100.00;99889.84;108701;1252;1002444;-72
2024/01/08 10:32:59;;;;;;;20.90;13.10;;;;;;;-5.63;100.00;99889.65;108594;1252;1002515;-72
2024/01/08 10:35:29;;;;;;;20.50;13.40;;;;;;;-5.51;100.00;99890.67;109333;1252;59569;-72
2024/01/08 10:37:58;;;;;;;20.30;13.40;;;;;;;-5.46;100.00;99894.20;109414;1252;60314;-73
2024/01/08 10:40:29;;;;;;;19.80;13.60;;;;;;;-5.40;100.00;99895.30;108654;1252;1002610;-73
2024/01/08 10:43:03;;;;;;;18.50;13.10;;;;;;;-5.35;100.00;99895.54;109433;1252;68874;-74
2024/01/08 10:45:33;;;;;;;18.70;13.00;;;;;;;-5.40;100.00;99896.86;109441;1252;72603;-73
2024/01/08 10:48:11;;;;;;;21.10;13.10;;;;;;;-5.38;100.00;99898.61;109424;1252;59516;-73
2024/01/08 10:50:38;;;;;;;20.10;13.20;;;;;;;-5.29;100.00;99900.80;108602;1252;1002582;-72
2024/01/08 10:53:11;;;;;;;17.40;12.00;;;;;;;-5.24;100.00;99902.77;109334;1252;76095;-73
2024/01/08 10:55:41;;;;;;;19.40;12.90;;;;;;;-5.28;100.00;99909.30;108719;1252;1003160;-74